sensor_id;sensor_type;location;lat;lon;timestamp;temperature;humidity
67799;SHT30;54596;43.216;27.904;2024-03-29T00:01:03;12.57;85.41
67799;SHT30;54596;43.216;27.904;2024-03-29T00:03:29;12.56;85.39
67799;SHT30;54596;43.216;27.904;2024-03-29T00:05:54;12.50;85.57
67799;SHT30;54596;43.216;27.904;2024-03-29T00:08:20;12.49;85.67
67799;SHT30;54596;43.216;27.904;2024-03-29T00:10:48;12.46;85.76
67799;SHT30;54596;43.216;27.904;2024-03-29T00:13:14;12.48;85.69
67799;SHT30;54596;43.216;27.904;2024-03-29T00:15:39;12.45;85.59
67799;SHT30;54596;43.216;27.904;2024-03-29T00:18:06;12.41;85.52
67799;SHT30;54596;43.216;27.904;2024-03-29T00:20:31;12.39;85.52
67799;SHT30;54596;43.216;27.904;2024-03-29T00:22:57;12.34;85.54
67799;SHT30;54596;43.216;27.904;2024-03-29T00:25:23;12.34;85.56
67799;SHT30;54596;43.216;27.904;2024-03-29T00:27:48;12.29;85.56
67799;SHT30;54596;43.216;27.904;2024-03-29T00:30:14;12.29;85.67
67799;SHT30;54596;43.216;27.904;2024-03-29T00:32:39;12.24;85.66
67799;SHT30;54596;43.216;27.904;2024-03-29T00:35:05;12.21;85.54
67799;SHT30;54596;43.216;27.904;2024-03-29T00:37:31;12.18;85.33
67799;SHT30;54596;43.216;27.904;2024-03-29T00:39:56;12.15;85.20
67799;SHT30;54596;43.216;27.904;2024-03-29T00:42:22;12.05;85.27
67799;SHT30;54596;43.216;27.904;2024-03-29T00:44:50;12.07;85.28
67799;SHT30;54596;43.216;27.904;2024-03-29T00:47:15;12.01;85.30
67799;SHT30;54596;43.216;27.904;2024-03-29T00:49:41;11.97;85.37
67799;SHT30;54596;43.216;27.904;2024-03-29T00:52:06;11.94;85.46
67799;SHT30;54596;43.216;27.904;2024-03-29T00:54:32;11.91;85.52
67799;SHT30;54596;43.216;27.904;2024-03-29T00:56:58;11.91;85.58
67799;SHT30;54596;43.216;27.904;2024-03-29T00:59:23;11.91;85.53
67799;SHT30;54596;43.216;27.904;2024-03-29T01:01:50;11.95;85.42
67799;SHT30;54596;43.216;27.904;2024-03-29T01:04:16;11.94;85.41
67799;SHT30;54596;43.216;27.904;2024-03-29T01:06:41;11.94;85.37
67799;SHT30;54596;43.216;27.904;2024-03-29T01:09:08;11.93;85.22
67799;SHT30;54596;43.216;27.904;2024-03-29T01:11:37;11.87;85.22
67799;SHT30;54596;43.216;27.904;2024-03-29T01:14:04;11.84;85.29
67799;SHT30;54596;43.216;27.904;2024-03-29T01:16:29;11.81;85.42
67799;SHT30;54596;43.216;27.904;2024-03-29T01:18:57;11.80;85.49
67799;SHT30;54596;43.216;27.904;2024-03-29T01:21:22;11.80;85.46
67799;SHT30;54596;43.216;27.904;2024-03-29T01:23:48;11.83;85.52
67799;SHT30;54596;43.216;27.904;2024-03-29T01:26:14;11.86;85.37
67799;SHT30;54596;43.216;27.904;2024-03-29T01:28:42;11.79;85.39
67799;SHT30;54596;43.216;27.904;2024-03-29T01:31:08;11.76;85.44
67799;SHT30;54596;43.216;27.904;2024-03-29T01:33:34;11.77;85.46
67799;SHT30;54596;43.216;27.904;2024-03-29T01:36:06;11.73;85.53
67799;SHT30;54596;43.216;27.904;2024-03-29T01:38:32;11.70;85.51
67799;SHT30;54596;43.216;27.904;2024-03-29T01:40:57;11.70;85.59
67799;SHT30;54596;43.216;27.904;2024-03-29T01:43:23;11.67;85.69
67799;SHT30;54596;43.216;27.904;2024-03-29T01:45:51;11.66;85.74
67799;SHT30;54596;43.216;27.904;2024-03-29T01:48:19;11.69;85.67
67799;SHT30;54596;43.216;27.904;2024-03-29T01:50:47;11.66;85.59
67799;SHT30;54596;43.216;27.904;2024-03-29T01:53:13;11.63;85.66
67799;SHT30;54596;43.216;27.904;2024-03-29T01:55:40;11.58;85.71
67799;SHT30;54596;43.216;27.904;2024-03-29T01:58:08;11.56;85.84
67799;SHT30;54596;43.216;27.904;2024-03-29T02:00:36;11.59;85.93
67799;SHT30;54596;43.216;27.904;2024-03-29T02:03:05;11.55;86.00
67799;SHT30;54596;43.216;27.904;2024-03-29T02:05:35;11.51;86.04
67799;SHT30;54596;43.216;27.904;2024-03-29T02:08:03;11.51;86.04
67799;SHT30;54596;43.216;27.904;2024-03-29T02:10:29;11.45;86.16
67799;SHT30;54596;43.216;27.904;2024-03-29T02:12:54;11.49;86.33
67799;SHT30;54596;43.216;27.904;2024-03-29T02:15:20;11.42;86.46
67799;SHT30;54596;43.216;27.904;2024-03-29T02:17:45;11.45;86.57
67799;SHT30;54596;43.216;27.904;2024-03-29T02:20:11;11.46;86.56
67799;SHT30;54596;43.216;27.904;2024-03-29T02:22:46;11.48;86.54
67799;SHT30;54596;43.216;27.904;2024-03-29T02:25:14;11.51;86.49
67799;SHT30;54596;43.216;27.904;2024-03-29T02:27:40;11.48;86.54
67799;SHT30;54596;43.216;27.904;2024-03-29T02:30:06;11.48;86.57
67799;SHT30;54596;43.216;27.904;2024-03-29T02:32:32;11.51;86.47
67799;SHT30;54596;43.216;27.904;2024-03-29T02:34:57;11.52;86.45
67799;SHT30;54596;43.216;27.904;2024-03-29T02:37:23;11.52;86.51
67799;SHT30;54596;43.216;27.904;2024-03-29T02:39:48;11.49;86.50
67799;SHT30;54596;43.216;27.904;2024-03-29T02:42:14;11.46;86.61
67799;SHT30;54596;43.216;27.904;2024-03-29T02:44:39;11.40;86.78
67799;SHT30;54596;43.216;27.904;2024-03-29T02:47:05;11.42;86.84
67799;SHT30;54596;43.216;27.904;2024-03-29T02:49:30;11.29;87.11
67799;SHT30;54596;43.216;27.904;2024-03-29T02:51:56;11.28;87.21
67799;SHT30;54596;43.216;27.904;2024-03-29T02:54:22;11.25;87.27
67799;SHT30;54596;43.216;27.904;2024-03-29T02:56:48;11.27;87.27
67799;SHT30;54596;43.216;27.904;2024-03-29T02:59:13;11.27;87.21
67799;SHT30;54596;43.216;27.904;2024-03-29T03:01:40;11.24;87.08
67799;SHT30;54596;43.216;27.904;2024-03-29T03:04:05;11.22;87.15
67799;SHT30;54596;43.216;27.904;2024-03-29T03:06:31;11.20;87.35
67799;SHT30;54596;43.216;27.904;2024-03-29T03:08:57;11.17;87.48
67799;SHT30;54596;43.216;27.904;2024-03-29T03:11:41;11.17;87.50
67799;SHT30;54596;43.216;27.904;2024-03-29T03:14:06;11.17;87.40
67799;SHT30;54596;43.216;27.904;2024-03-29T03:16:32;11.15;87.52
67799;SHT30;54596;43.216;27.904;2024-03-29T03:18:58;11.18;87.60
67799;SHT30;54596;43.216;27.904;2024-03-29T03:21:23;11.21;87.62
67799;SHT30;54596;43.216;27.904;2024-03-29T03:23:49;11.20;87.51
67799;SHT30;54596;43.216;27.904;2024-03-29T03:26:14;11.21;87.45
67799;SHT30;54596;43.216;27.904;2024-03-29T03:28:40;11.21;87.40
67799;SHT30;54596;43.216;27.904;2024-03-29T03:31:05;11.17;87.40
67799;SHT30;54596;43.216;27.904;2024-03-29T03:33:32;11.14;87.56
67799;SHT30;54596;43.216;27.904;2024-03-29T03:35:58;11.11;87.62
67799;SHT30;54596;43.216;27.904;2024-03-29T03:38:23;11.12;87.74
67799;SHT30;54596;43.216;27.904;2024-03-29T03:40:49;11.06;87.92
67799;SHT30;54596;43.216;27.904;2024-03-29T03:43:15;11.06;87.95
67799;SHT30;54596;43.216;27.904;2024-03-29T03:45:41;11.04;88.06
67799;SHT30;54596;43.216;27.904;2024-03-29T03:48:08;11.01;88.14
67799;SHT30;54596;43.216;27.904;2024-03-29T03:50:34;11.03;88.21
67799;SHT30;54596;43.216;27.904;2024-03-29T03:53:00;11.04;88.37
67799;SHT30;54596;43.216;27.904;2024-03-29T03:55:26;11.04;88.88
67799;SHT30;54596;43.216;27.904;2024-03-29T03:57:53;11.03;88.99
67799;SHT30;54596;43.216;27.904;2024-03-29T04:00:19;11.10;89.41
67799;SHT30;54596;43.216;27.904;2024-03-29T04:02:50;11.14;89.63
67799;SHT30;54596;43.216;27.904;2024-03-29T04:05:20;11.24;89.69
67799;SHT30;54596;43.216;27.904;2024-03-29T04:07:46;11.29;89.65
67799;SHT30;54596;43.216;27.904;2024-03-29T04:10:12;11.34;89.44
67799;SHT30;54596;43.216;27.904;2024-03-29T04:12:38;11.39;89.16
67799;SHT30;54596;43.216;27.904;2024-03-29T04:15:04;11.46;88.76
67799;SHT30;54596;43.216;27.904;2024-03-29T04:17:31;11.51;88.52
67799;SHT30;54596;43.216;27.904;2024-03-29T04:19:57;11.56;88.20
67799;SHT30;54596;43.216;27.904;2024-03-29T04:22:23;11.58;87.97
67799;SHT30;54596;43.216;27.904;2024-03-29T04:24:49;11.61;87.75
67799;SHT30;54596;43.216;27.904;2024-03-29T04:27:15;11.61;87.74
67799;SHT30;54596;43.216;27.904;2024-03-29T04:29:40;11.61;87.82
67799;SHT30;54596;43.216;27.904;2024-03-29T04:32:06;11.55;87.94
67799;SHT30;54596;43.216;27.904;2024-03-29T04:34:33;11.61;87.85
67799;SHT30;54596;43.216;27.904;2024-03-29T04:36:58;11.66;87.88
67799;SHT30;54596;43.216;27.904;2024-03-29T04:39:25;11.69;87.67
67799;SHT30;54596;43.216;27.904;2024-03-29T04:41:50;11.74;87.35
67799;SHT30;54596;43.216;27.904;2024-03-29T04:44:23;11.79;87.12
67799;SHT30;54596;43.216;27.904;2024-03-29T04:46:50;11.79;87.14
67799;SHT30;54596;43.216;27.904;2024-03-29T04:49:18;11.77;87.06
67799;SHT30;54596;43.216;27.904;2024-03-29T04:51:48;11.79;86.45
67799;SHT30;54596;43.216;27.904;2024-03-29T04:54:14;11.80;86.70
67799;SHT30;54596;43.216;27.904;2024-03-29T04:56:41;11.76;86.80
67799;SHT30;54596;43.216;27.904;2024-03-29T04:59:07;11.79;87.22
67799;SHT30;54596;43.216;27.904;2024-03-29T05:01:33;11.81;87.08
67799;SHT30;54596;43.216;27.904;2024-03-29T05:04:01;11.81;86.43
67799;SHT30;54596;43.216;27.904;2024-03-29T05:06:26;11.83;86.57
67799;SHT30;54596;43.216;27.904;2024-03-29T05:08:52;11.89;86.41
67799;SHT30;54596;43.216;27.904;2024-03-29T05:11:18;11.91;86.32
67799;SHT30;54596;43.216;27.904;2024-03-29T05:13:44;11.91;86.26
67799;SHT30;54596;43.216;27.904;2024-03-29T05:16:10;11.95;86.32
67799;SHT30;54596;43.216;27.904;2024-03-29T05:18:35;12.00;86.36
67799;SHT30;54596;43.216;27.904;2024-03-29T05:21:01;12.02;86.28
67799;SHT30;54596;43.216;27.904;2024-03-29T05:23:26;12.13;86.62
67799;SHT30;54596;43.216;27.904;2024-03-29T05:25:52;12.21;86.73
67799;SHT30;54596;43.216;27.904;2024-03-29T05:28:18;12.32;86.64
67799;SHT30;54596;43.216;27.904;2024-03-29T05:30:43;12.41;86.67
67799;SHT30;54596;43.216;27.904;2024-03-29T05:33:09;12.52;86.74
67799;SHT30;54596;43.216;27.904;2024-03-29T05:35:34;12.64;86.66
67799;SHT30;54596;43.216;27.904;2024-03-29T05:38:00;12.81;86.61
67799;SHT30;54596;43.216;27.904;2024-03-29T05:40:26;12.94;85.96
67799;SHT30;54596;43.216;27.904;2024-03-29T05:42:53;13.03;85.75
67799;SHT30;54596;43.216;27.904;2024-03-29T05:45:30;13.21;85.34
67799;SHT30;54596;43.216;27.904;2024-03-29T05:47:57;13.45;85.06
67799;SHT30;54596;43.216;27.904;2024-03-29T05:50:23;13.67;84.53
67799;SHT30;54596;43.216;27.904;2024-03-29T05:52:49;14.11;84.06
67799;SHT30;54596;43.216;27.904;2024-03-29T05:55:15;14.70;82.77
67799;SHT30;54596;43.216;27.904;2024-03-29T05:57:40;15.40;81.50
67799;SHT30;54596;43.216;27.904;2024-03-29T06:00:07;16.09;78.26
67799;SHT30;54596;43.216;27.904;2024-03-29T06:02:36;16.68;76.36
67799;SHT30;54596;43.216;27.904;2024-03-29T06:05:01;17.32;75.47
67799;SHT30;54596;43.216;27.904;2024-03-29T06:07:28;17.89;73.62
67799;SHT30;54596;43.216;27.904;2024-03-29T06:09:54;18.47;71.27
67799;SHT30;54596;43.216;27.904;2024-03-29T06:12:20;19.05;69.97
67799;SHT30;54596;43.216;27.904;2024-03-29T06:14:45;19.65;68.93
67799;SHT30;54596;43.216;27.904;2024-03-29T06:17:29;20.22;67.31
67799;SHT30;54596;43.216;27.904;2024-03-29T06:19:55;20.78;65.64
67799;SHT30;54596;43.216;27.904;2024-03-29T06:22:25;21.39;64.66
67799;SHT30;54596;43.216;27.904;2024-03-29T06:24:51;22.00;63.09
67799;SHT30;54596;43.216;27.904;2024-03-29T06:27:17;22.61;61.50
67799;SHT30;54596;43.216;27.904;2024-03-29T06:29:44;22.65;60.59
67799;SHT30;54596;43.216;27.904;2024-03-29T06:32:10;23.27;59.75
67799;SHT30;54596;43.216;27.904;2024-03-29T06:34:36;23.98;58.18
67799;SHT30;54596;43.216;27.904;2024-03-29T06:37:02;24.26;57.02
67799;SHT30;54596;43.216;27.904;2024-03-29T06:39:27;24.47;56.56
67799;SHT30;54596;43.216;27.904;2024-03-29T06:41:53;25.00;55.65
67799;SHT30;54596;43.216;27.904;2024-03-29T06:44:18;25.33;54.80
67799;SHT30;54596;43.216;27.904;2024-03-29T06:46:45;25.81;54.16
67799;SHT30;54596;43.216;27.904;2024-03-29T06:49:11;26.07;53.51
67799;SHT30;54596;43.216;27.904;2024-03-29T06:51:39;25.96;53.58
67799;SHT30;54596;43.216;27.904;2024-03-29T06:54:05;25.72;54.05
67799;SHT30;54596;43.216;27.904;2024-03-29T06:56:31;25.43;54.63
67799;SHT30;54596;43.216;27.904;2024-03-29T06:58:57;25.17;54.92
67799;SHT30;54596;43.216;27.904;2024-03-29T07:01:22;25.67;54.12
67799;SHT30;54596;43.216;27.904;2024-03-29T07:03:48;26.00;53.34
67799;SHT30;54596;43.216;27.904;2024-03-29T07:06:13;26.57;51.50
67799;SHT30;54596;43.216;27.904;2024-03-29T07:08:39;27.20;50.09
67799;SHT30;54596;43.216;27.904;2024-03-29T07:11:04;27.85;48.19
67799;SHT30;54596;43.216;27.904;2024-03-29T07:13:30;28.71;46.16
67799;SHT30;54596;43.216;27.904;2024-03-29T07:15:57;29.06;44.72
67799;SHT30;54596;43.216;27.904;2024-03-29T07:18:23;29.88;44.47
67799;SHT30;54596;43.216;27.904;2024-03-29T07:20:49;29.52;44.27
67799;SHT30;54596;43.216;27.904;2024-03-29T07:23:16;30.09;42.38
67799;SHT30;54596;43.216;27.904;2024-03-29T07:26:03;30.93;41.20
67799;SHT30;54596;43.216;27.904;2024-03-29T07:28:29;29.52;41.96
67799;SHT30;54596;43.216;27.904;2024-03-29T07:30:55;30.14;40.50
67799;SHT30;54596;43.216;27.904;2024-03-29T07:33:23;31.13;38.85
67799;SHT30;54596;43.216;27.904;2024-03-29T07:35:52;31.97;37.81
67799;SHT30;54596;43.216;27.904;2024-03-29T07:38:18;32.40;36.92
67799;SHT30;54596;43.216;27.904;2024-03-29T07:40:46;32.98;35.85
67799;SHT30;54596;43.216;27.904;2024-03-29T07:43:11;33.10;35.70
67799;SHT30;54596;43.216;27.904;2024-03-29T07:45:40;33.26;35.39
67799;SHT30;54596;43.216;27.904;2024-03-29T07:48:07;33.10;35.56
67799;SHT30;54596;43.216;27.904;2024-03-29T07:50:33;33.30;34.95
67799;SHT30;54596;43.216;27.904;2024-03-29T07:52:58;33.99;34.28
67799;SHT30;54596;43.216;27.904;2024-03-29T07:55:24;34.21;33.91
67799;SHT30;54596;43.216;27.904;2024-03-29T07:57:49;34.26;34.51
67799;SHT30;54596;43.216;27.904;2024-03-29T08:00:16;34.10;34.08
67799;SHT30;54596;43.216;27.904;2024-03-29T08:02:41;34.52;34.09
67799;SHT30;54596;43.216;27.904;2024-03-29T08:05:07;34.55;34.03
67799;SHT30;54596;43.216;27.904;2024-03-29T08:07:35;35.02;33.78
67799;SHT30;54596;43.216;27.904;2024-03-29T08:10:04;34.95;33.16
67799;SHT30;54596;43.216;27.904;2024-03-29T08:12:31;35.10;33.19
67799;SHT30;54596;43.216;27.904;2024-03-29T08:14:58;35.25;33.15
67799;SHT30;54596;43.216;27.904;2024-03-29T08:17:24;35.48;32.65
67799;SHT30;54596;43.216;27.904;2024-03-29T08:19:50;35.71;32.50
67799;SHT30;54596;43.216;27.904;2024-03-29T08:22:16;36.00;32.03
67799;SHT30;54596;43.216;27.904;2024-03-29T08:24:41;35.66;32.16
67799;SHT30;54596;43.216;27.904;2024-03-29T08:27:07;35.37;32.54
67799;SHT30;54596;43.216;27.904;2024-03-29T08:29:32;35.47;32.71
67799;SHT30;54596;43.216;27.904;2024-03-29T08:31:58;35.23;32.83
67799;SHT30;54596;43.216;27.904;2024-03-29T08:34:24;34.03;33.74
67799;SHT30;54596;43.216;27.904;2024-03-29T08:36:49;33.26;34.67
67799;SHT30;54596;43.216;27.904;2024-03-29T08:39:15;32.68;35.56
67799;SHT30;54596;43.216;27.904;2024-03-29T08:41:42;32.03;35.92
67799;SHT30;54596;43.216;27.904;2024-03-29T08:44:09;31.27;36.32
67799;SHT30;54596;43.216;27.904;2024-03-29T08:46:35;30.62;37.05
67799;SHT30;54596;43.216;27.904;2024-03-29T08:49:01;30.34;37.33
67799;SHT30;54596;43.216;27.904;2024-03-29T08:51:26;29.73;37.99
67799;SHT30;54596;43.216;27.904;2024-03-29T08:53:52;29.34;38.54
67799;SHT30;54596;43.216;27.904;2024-03-29T08:56:17;29.13;39.01
67799;SHT30;54596;43.216;27.904;2024-03-29T08:58:43;28.85;39.35
67799;SHT30;54596;43.216;27.904;2024-03-29T09:01:09;28.43;39.90
67799;SHT30;54596;43.216;27.904;2024-03-29T09:03:34;28.10;40.29
67799;SHT30;54596;43.216;27.904;2024-03-29T09:06:00;27.35;41.05
67799;SHT30;54596;43.216;27.904;2024-03-29T09:08:25;27.09;41.86
67799;SHT30;54596;43.216;27.904;2024-03-29T09:10:53;26.72;42.67
67799;SHT30;54596;43.216;27.904;2024-03-29T09:13:18;26.59;43.61
67799;SHT30;54596;43.216;27.904;2024-03-29T09:15:44;26.55;44.16
67799;SHT30;54596;43.216;27.904;2024-03-29T09:18:09;26.37;43.52
67799;SHT30;54596;43.216;27.904;2024-03-29T09:20:38;26.33;43.81
67799;SHT30;54596;43.216;27.904;2024-03-29T09:23:04;26.26;43.73
67799;SHT30;54596;43.216;27.904;2024-03-29T09:25:30;26.19;43.86
67799;SHT30;54596;43.216;27.904;2024-03-29T09:27:57;26.03;44.24
67799;SHT30;54596;43.216;27.904;2024-03-29T09:30:22;25.86;44.00
67799;SHT30;54596;43.216;27.904;2024-03-29T09:32:48;25.75;44.55
67799;SHT30;54596;43.216;27.904;2024-03-29T09:35:17;25.81;44.52
67799;SHT30;54596;43.216;27.904;2024-03-29T09:37:42;25.71;44.06
67799;SHT30;54596;43.216;27.904;2024-03-29T09:40:09;25.68;44.09
67799;SHT30;54596;43.216;27.904;2024-03-29T09:42:38;25.64;43.73
67799;SHT30;54596;43.216;27.904;2024-03-29T09:45:05;25.61;43.87
67799;SHT30;54596;43.216;27.904;2024-03-29T09:47:31;25.62;44.27
67799;SHT30;54596;43.216;27.904;2024-03-29T09:49:59;25.44;44.29
67799;SHT30;54596;43.216;27.904;2024-03-29T09:52:29;25.38;44.29
67799;SHT30;54596;43.216;27.904;2024-03-29T09:54:55;25.20;44.42
67799;SHT30;54596;43.216;27.904;2024-03-29T09:57:22;25.13;44.94
67799;SHT30;54596;43.216;27.904;2024-03-29T09:59:49;25.12;45.17
67799;SHT30;54596;43.216;27.904;2024-03-29T10:02:16;25.16;44.59
67799;SHT30;54596;43.216;27.904;2024-03-29T10:04:42;25.13;44.83
67799;SHT30;54596;43.216;27.904;2024-03-29T10:07:11;25.12;44.51
67799;SHT30;54596;43.216;27.904;2024-03-29T10:09:38;25.13;45.04
67799;SHT30;54596;43.216;27.904;2024-03-29T10:12:04;25.13;45.06
67799;SHT30;54596;43.216;27.904;2024-03-29T10:14:31;25.15;45.26
67799;SHT30;54596;43.216;27.904;2024-03-29T10:16:59;25.17;45.05
67799;SHT30;54596;43.216;27.904;2024-03-29T10:19:25;25.12;45.21
67799;SHT30;54596;43.216;27.904;2024-03-29T10:21:51;25.12;45.44
67799;SHT30;54596;43.216;27.904;2024-03-29T10:24:17;25.12;45.30
67799;SHT30;54596;43.216;27.904;2024-03-29T10:26:43;25.16;45.51
67799;SHT30;54596;43.216;27.904;2024-03-29T10:29:09;25.23;45.10
67799;SHT30;54596;43.216;27.904;2024-03-29T10:31:36;25.28;45.32
67799;SHT30;54596;43.216;27.904;2024-03-29T10:34:05;25.26;45.51
67799;SHT30;54596;43.216;27.904;2024-03-29T10:36:31;25.31;45.47
67799;SHT30;54596;43.216;27.904;2024-03-29T10:39:09;25.26;45.01
67799;SHT30;54596;43.216;27.904;2024-03-29T10:41:42;25.20;45.10
67799;SHT30;54596;43.216;27.904;2024-03-29T10:44:11;25.20;45.33
67799;SHT30;54596;43.216;27.904;2024-03-29T10:46:38;25.20;45.09
67799;SHT30;54596;43.216;27.904;2024-03-29T10:49:09;25.22;45.23
67799;SHT30;54596;43.216;27.904;2024-03-29T10:51:40;25.23;45.09
67799;SHT30;54596;43.216;27.904;2024-03-29T10:54:09;25.22;44.64
67799;SHT30;54596;43.216;27.904;2024-03-29T10:56:36;25.24;44.02
67799;SHT30;54596;43.216;27.904;2024-03-29T10:59:28;25.26;43.63
67799;SHT30;54596;43.216;27.904;2024-03-29T11:02:00;25.20;43.79
67799;SHT30;54596;43.216;27.904;2024-03-29T11:04:33;25.13;44.44
67799;SHT30;54596;43.216;27.904;2024-03-29T11:07:05;25.13;44.61
67799;SHT30;54596;43.216;27.904;2024-03-29T11:09:33;25.16;44.49
67799;SHT30;54596;43.216;27.904;2024-03-29T11:12:01;25.19;44.44
67799;SHT30;54596;43.216;27.904;2024-03-29T11:14:33;25.19;44.68
67799;SHT30;54596;43.216;27.904;2024-03-29T11:17:03;25.17;44.58
67799;SHT30;54596;43.216;27.904;2024-03-29T11:19:29;25.22;44.48
67799;SHT30;54596;43.216;27.904;2024-03-29T11:21:55;25.27;44.24
67799;SHT30;54596;43.216;27.904;2024-03-29T11:24:22;25.26;44.35
67799;SHT30;54596;43.216;27.904;2024-03-29T11:26:49;25.24;44.65
67799;SHT30;54596;43.216;27.904;2024-03-29T11:29:19;25.24;44.63
67799;SHT30;54596;43.216;27.904;2024-03-29T11:31:45;25.20;44.78
67799;SHT30;54596;43.216;27.904;2024-03-29T11:34:12;25.20;44.92
67799;SHT30;54596;43.216;27.904;2024-03-29T11:36:39;25.23;45.01
67799;SHT30;54596;43.216;27.904;2024-03-29T11:39:05;25.24;45.11
67799;SHT30;54596;43.216;27.904;2024-03-29T11:41:31;25.20;45.25
67799;SHT30;54596;43.216;27.904;2024-03-29T11:43:58;25.16;44.92
67799;SHT30;54596;43.216;27.904;2024-03-29T11:46:24;25.16;44.88
67799;SHT30;54596;43.216;27.904;2024-03-29T11:48:50;25.17;45.08
67799;SHT30;54596;43.216;27.904;2024-03-29T11:51:20;25.19;45.24
67799;SHT30;54596;43.216;27.904;2024-03-29T11:53:53;25.19;44.87
67799;SHT30;54596;43.216;27.904;2024-03-29T11:56:20;25.23;45.06
67799;SHT30;54596;43.216;27.904;2024-03-29T11:58:48;25.24;44.64
67799;SHT30;54596;43.216;27.904;2024-03-29T12:01:14;25.22;44.57
67799;SHT30;54596;43.216;27.904;2024-03-29T12:03:41;25.23;44.49
67799;SHT30;54596;43.216;27.904;2024-03-29T12:06:08;25.26;44.00
67799;SHT30;54596;43.216;27.904;2024-03-29T12:08:38;25.19;44.20
67799;SHT30;54596;43.216;27.904;2024-03-29T12:11:04;25.20;44.14
67799;SHT30;54596;43.216;27.904;2024-03-29T12:13:30;25.22;44.25
67799;SHT30;54596;43.216;27.904;2024-03-29T12:15:57;25.26;44.30
67799;SHT30;54596;43.216;27.904;2024-03-29T12:18:24;25.27;44.68
67799;SHT30;54596;43.216;27.904;2024-03-29T12:20:51;25.28;44.77
67799;SHT30;54596;43.216;27.904;2024-03-29T12:23:19;25.27;44.12
67799;SHT30;54596;43.216;27.904;2024-03-29T12:25:45;25.26;44.19
67799;SHT30;54596;43.216;27.904;2024-03-29T12:28:12;25.30;43.63
67799;SHT30;54596;43.216;27.904;2024-03-29T12:30:47;25.26;43.59
67799;SHT30;54596;43.216;27.904;2024-03-29T12:33:14;25.28;44.17
67799;SHT30;54596;43.216;27.904;2024-03-29T12:35:46;25.26;43.91
67799;SHT30;54596;43.216;27.904;2024-03-29T12:38:16;25.27;43.99
67799;SHT30;54596;43.216;27.904;2024-03-29T12:40:44;25.34;43.88
67799;SHT30;54596;43.216;27.904;2024-03-29T12:43:10;25.35;43.87
67799;SHT30;54596;43.216;27.904;2024-03-29T12:45:41;25.41;43.27
67799;SHT30;54596;43.216;27.904;2024-03-29T12:48:20;25.35;43.31
67799;SHT30;54596;43.216;27.904;2024-03-29T12:50:47;25.30;43.52
67799;SHT30;54596;43.216;27.904;2024-03-29T12:53:15;25.30;43.32
67799;SHT30;54596;43.216;27.904;2024-03-29T12:55:42;25.27;43.34
67799;SHT30;54596;43.216;27.904;2024-03-29T12:58:19;25.26;42.51
67799;SHT30;54596;43.216;27.904;2024-03-29T13:00:48;25.26;42.73
67799;SHT30;54596;43.216;27.904;2024-03-29T13:03:13;25.22;42.96
67799;SHT30;54596;43.216;27.904;2024-03-29T13:05:40;25.22;43.22
67799;SHT30;54596;43.216;27.904;2024-03-29T13:08:10;25.27;43.46
67799;SHT30;54596;43.216;27.904;2024-03-29T13:10:39;25.26;44.55
67799;SHT30;54596;43.216;27.904;2024-03-29T13:13:05;25.23;44.06
67799;SHT30;54596;43.216;27.904;2024-03-29T13:15:33;25.24;43.75
67799;SHT30;54596;43.216;27.904;2024-03-29T13:17:59;25.24;43.94
67799;SHT30;54596;43.216;27.904;2024-03-29T13:20:25;25.17;43.96
67799;SHT30;54596;43.216;27.904;2024-03-29T13:22:51;25.16;44.07
67799;SHT30;54596;43.216;27.904;2024-03-29T13:25:20;25.16;44.24
67799;SHT30;54596;43.216;27.904;2024-03-29T13:27:48;25.15;44.02
67799;SHT30;54596;43.216;27.904;2024-03-29T13:30:14;25.07;43.58
67799;SHT30;54596;43.216;27.904;2024-03-29T13:32:41;25.09;43.72
67799;SHT30;54596;43.216;27.904;2024-03-29T13:35:08;25.09;43.97
67799;SHT30;54596;43.216;27.904;2024-03-29T13:37:38;25.03;44.02
67799;SHT30;54596;43.216;27.904;2024-03-29T13:40:07;25.00;44.52
67799;SHT30;54596;43.216;27.904;2024-03-29T13:42:36;24.99;44.72
67799;SHT30;54596;43.216;27.904;2024-03-29T13:45:03;24.96;44.84
67799;SHT30;54596;43.216;27.904;2024-03-29T13:47:29;24.93;44.79
67799;SHT30;54596;43.216;27.904;2024-03-29T13:49:55;24.90;45.01
67799;SHT30;54596;43.216;27.904;2024-03-29T13:52:22;24.98;44.75
67799;SHT30;54596;43.216;27.904;2024-03-29T13:54:47;24.96;44.58
67799;SHT30;54596;43.216;27.904;2024-03-29T13:57:14;24.98;44.40
67799;SHT30;54596;43.216;27.904;2024-03-29T13:59:40;25.02;44.45
67799;SHT30;54596;43.216;27.904;2024-03-29T14:02:09;25.00;44.43
67799;SHT30;54596;43.216;27.904;2024-03-29T14:04:35;24.96;44.16
67799;SHT30;54596;43.216;27.904;2024-03-29T14:07:01;24.90;44.45
67799;SHT30;54596;43.216;27.904;2024-03-29T14:09:28;24.85;44.30
67799;SHT30;54596;43.216;27.904;2024-03-29T14:11:54;24.85;44.58
67799;SHT30;54596;43.216;27.904;2024-03-29T14:14:19;24.81;44.81
67799;SHT30;54596;43.216;27.904;2024-03-29T14:16:45;24.78;44.85
67799;SHT30;54596;43.216;27.904;2024-03-29T14:19:10;24.79;45.09
67799;SHT30;54596;43.216;27.904;2024-03-29T14:21:36;24.79;44.73
67799;SHT30;54596;43.216;27.904;2024-03-29T14:24:02;24.79;44.79
67799;SHT30;54596;43.216;27.904;2024-03-29T14:26:27;24.79;44.50
67799;SHT30;54596;43.216;27.904;2024-03-29T14:28:53;24.78;44.26
67799;SHT30;54596;43.216;27.904;2024-03-29T14:31:18;24.75;44.88
67799;SHT30;54596;43.216;27.904;2024-03-29T14:33:45;24.69;44.66
67799;SHT30;54596;43.216;27.904;2024-03-29T14:36:12;24.64;44.44
67799;SHT30;54596;43.216;27.904;2024-03-29T14:38:37;24.65;44.30
67799;SHT30;54596;43.216;27.904;2024-03-29T14:41:03;24.62;44.23
67799;SHT30;54596;43.216;27.904;2024-03-29T14:43:29;24.62;44.44
67799;SHT30;54596;43.216;27.904;2024-03-29T14:45:54;24.58;44.47
67799;SHT30;54596;43.216;27.904;2024-03-29T14:48:20;24.60;44.44
67799;SHT30;54596;43.216;27.904;2024-03-29T14:50:46;24.64;44.30
67799;SHT30;54596;43.216;27.904;2024-03-29T14:53:11;24.64;44.34
67799;SHT30;54596;43.216;27.904;2024-03-29T14:55:55;24.62;44.53
67799;SHT30;54596;43.216;27.904;2024-03-29T14:58:21;24.54;44.85
67799;SHT30;54596;43.216;27.904;2024-03-29T15:00:47;24.54;44.78
67799;SHT30;54596;43.216;27.904;2024-03-29T15:03:13;24.44;45.04
67799;SHT30;54596;43.216;27.904;2024-03-29T15:05:38;24.48;44.93
67799;SHT30;54596;43.216;27.904;2024-03-29T15:08:05;24.43;44.97
67799;SHT30;54596;43.216;27.904;2024-03-29T15:10:31;24.38;44.59
67799;SHT30;54596;43.216;27.904;2024-03-29T15:12:57;24.38;44.64